King Ferry, NY

3:46 PM EDT on April 19, 2015 (GMT -0400)
Fessenden Farms | | Change Station
CLOSE
Current Station
Personal Weather Station
Location: King Ferry, NY
Elevation: 925 ft
Nearby Weather Stations

Elev 925 ft 42.67 °N, 76.62 °W | Updated 0 second ago

Clear
Clear
69.1 °F
Feels Like 69.1 °F
N
1.0
Wind Variable Wind from SE
Gusts 10.0 mph

Today
High -- | Low -- °F
--% Chance of Precip.
Yesterday
High -- | Low -- °F
Precip. -- in
6:19 AM 7:52 PM
New Moon, 2% visible
Pressure 30.10 in
Visibility 10.0 miles
Clouds Clear
Dew Point 31 °F
Humidity 24%
Rainfall 0.00 in
Snow Depth Not available.
UV 8 out of 12
Pollen 10.00 out of 12
Air Quality Not available.
Flu Activity Widespread
METAR KITH 191856Z 17007KT 10SM CLR 18/M06 A3010

More Conditions Fewer Conditions

Pressure 30.10 in
Visibility 10.0 miles
Clouds Clear
Dew Point 31 °F
Humidity 24%
Rainfall 0.00 in
Snow Depth Not available.
UV 8 out of 12
Pollen 10.00 out of 12
Air Quality Not available.
Flu Activity Widespread
METAR KITH 191856Z 17007KT 10SM CLR 18/M06 A3010

More Conditions Fewer Conditions

10-Day Weather Forecast

Almanac

Astronomy

Apr. 19, 2015 Rise Set
Actual Time
Civil Twilight
Nautical Twilight
Astronomical Twilight
Moon
Length of Visible Light
Length of Day
Tomorrow will be .
, % of the Moon is Illuminated

Today's Extremes

State Highs State Lows

Community

WunderPhotos

Upload Photos

1,814,950 photos uploaded!

WunderBlogs® & News

Nearby

Air Quality

  Air Quality AQ Index Pollutant
Not available.

Snow Depth

Station Depth Elevation

Earthquake Activity

City Distance Mag. Time & Date
Minimum magnitude displayed is 2.5.

Coastal Water Temperatures

Place Temperature

Stations

Nearby Weather Stations

Station Location Temp. Windchill Dew Point Humidity Wind Precip. Elev Updated Type